createdAt,value
2022-11-06T00:01:18.966Z,19.95
2022-11-06T00:03:36.388Z,22.85
2022-11-06T00:05:54.573Z,20.20
2022-11-06T00:08:11.984Z,27.02
2022-11-06T00:10:29.337Z,22.10
2022-11-06T00:12:46.804Z,20.65
2022-11-06T00:15:07.125Z,22.25
2022-11-06T00:17:25.139Z,19.35
2022-11-06T00:19:45.616Z,23.55
2022-11-06T00:22:02.670Z,25.83
2022-11-06T00:24:19.680Z,21.58
2022-11-06T00:26:37.312Z,23.25
2022-11-06T00:28:54.397Z,21.42
2022-11-06T00:31:11.540Z,18.75
2022-11-06T00:33:28.642Z,26.08
2022-11-06T00:35:47.209Z,24.80
2022-11-06T00:38:04.780Z,26.50
2022-11-06T00:40:22.321Z,22.80
2022-11-06T00:42:39.499Z,21.50
2022-11-06T00:44:56.826Z,24.15
2022-11-06T00:47:15.573Z,24.67
2022-11-06T00:49:32.818Z,23.73
2022-11-06T00:51:49.839Z,22.25
2022-11-06T00:54:08.671Z,23.42
2022-11-06T00:56:25.811Z,20.58
2022-11-06T00:58:44.069Z,25.20
2022-11-06T01:01:01.004Z,24.63
2022-11-06T01:03:18.012Z,23.90
2022-11-06T01:05:34.938Z,21.80
2022-11-06T01:07:51.946Z,22.25
2022-11-06T01:10:09.291Z,20.52
2022-11-06T01:12:26.229Z,18.48
2022-11-06T01:14:43.217Z,21.52
2022-11-06T01:17:00.512Z,20.75
2022-11-06T01:19:17.691Z,19.58
2022-11-06T01:21:34.621Z,20.52
2022-11-06T01:23:51.628Z,18.13
2022-11-06T01:26:08.573Z,21.20
2022-11-06T01:28:25.643Z,19.73
2022-11-06T01:30:43.707Z,21.90
2022-11-06T01:33:00.829Z,18.50
2022-11-06T01:35:17.929Z,22.25
2022-11-06T01:37:35.221Z,19.08
2022-11-06T01:39:52.242Z,20.88
2022-11-06T01:42:09.252Z,21.52
2022-11-06T01:44:26.805Z,25.52
2022-11-06T01:46:43.851Z,19.90
2022-11-06T01:49:01.196Z,18.35
2022-11-06T01:51:18.840Z,22.63
2022-11-06T01:53:35.930Z,21.98
2022-11-06T01:55:53.169Z,24.65
2022-11-06T01:58:10.839Z,22.48
2022-11-06T02:00:28.270Z,19.88
2022-11-06T02:02:45.633Z,20.65
2022-11-06T02:05:02.959Z,23.85
2022-11-06T02:07:19.998Z,20.75
2022-11-06T02:09:37.132Z,18.58
2022-11-06T02:11:54.373Z,20.27
2022-11-06T02:14:11.472Z,20.90
2022-11-06T02:16:28.886Z,19.55
2022-11-06T02:18:45.929Z,17.17
2022-11-06T02:21:04.910Z,18.20
2022-11-06T02:23:22.090Z,19.38
2022-11-06T02:25:39.372Z,17.83
2022-11-06T02:27:56.676Z,20.27
2022-11-06T02:30:13.622Z,18.90
2022-11-06T02:32:32.881Z,18.33
2022-11-06T02:34:50.286Z,21.15
2022-11-06T02:37:07.222Z,21.73
2022-11-06T02:39:24.250Z,21.05
2022-11-06T02:41:41.557Z,22.00
2022-11-06T02:43:58.614Z,16.52
2022-11-06T02:46:15.908Z,16.77
2022-11-06T02:48:33.244Z,17.80
2022-11-06T02:50:51.270Z,16.42
2022-11-06T02:53:08.361Z,19.05
2022-11-06T02:55:25.426Z,18.50
2022-11-06T02:57:42.727Z,17.83
2022-11-06T02:59:59.612Z,16.45
2022-11-06T03:02:17.015Z,18.98
2022-11-06T03:04:34.289Z,17.65
2022-11-06T03:06:51.567Z,19.58
2022-11-06T03:09:09.509Z,24.00
2022-11-06T03:11:26.585Z,17.83
2022-11-06T03:13:43.511Z,18.40
2022-11-06T03:16:01.572Z,20.73
2022-11-06T03:18:18.859Z,17.30
2022-11-06T03:20:36.780Z,15.43
2022-11-06T03:22:54.045Z,13.63
2022-11-06T03:25:11.072Z,19.95
2022-11-06T03:27:28.408Z,16.73
2022-11-06T03:29:45.424Z,18.70
2022-11-06T03:32:02.693Z,21.27
2022-11-06T03:34:19.743Z,19.27
2022-11-06T03:36:36.768Z,20.00
2022-11-06T03:38:54.015Z,17.73
2022-11-06T03:41:11.632Z,16.02
2022-11-06T03:43:29.614Z,18.08
2022-11-06T03:45:46.605Z,19.13
2022-11-06T03:48:04.529Z,17.95
2022-11-06T03:50:21.602Z,18.95
2022-11-06T03:52:38.917Z,17.92
2022-11-06T03:54:55.894Z,18.90
2022-11-06T03:57:12.767Z,17.98
2022-11-06T03:59:30.706Z,20.60
2022-11-06T04:01:48.760Z,15.77
2022-11-06T04:04:05.720Z,21.52
2022-11-06T04:06:22.664Z,17.38
2022-11-06T04:08:39.646Z,20.88
2022-11-06T04:10:56.514Z,20.95
2022-11-06T04:13:13.768Z,20.40
2022-11-06T04:15:30.755Z,17.85
2022-11-06T04:17:48.794Z,18.42
2022-11-06T04:20:05.976Z,16.15
2022-11-06T04:22:23.266Z,19.83
2022-11-06T04:24:41.273Z,20.77
2022-11-06T04:26:58.284Z,18.50
2022-11-06T04:29:15.573Z,19.52
2022-11-06T04:31:32.523Z,20.88
2022-11-06T04:33:49.966Z,18.25
2022-11-06T04:36:06.883Z,21.50
2022-11-06T04:38:23.746Z,18.90
2022-11-06T04:40:40.749Z,19.00
2022-11-06T04:42:57.739Z,18.17
2022-11-06T04:45:14.725Z,19.42
2022-11-06T04:47:31.664Z,15.73
2022-11-06T04:49:48.957Z,24.40
2022-11-06T04:52:05.937Z,18.80
2022-11-06T04:54:22.965Z,15.98
2022-11-06T04:56:45.547Z,19.35
2022-11-06T04:59:03.371Z,17.43
2022-11-06T05:01:20.852Z,20.75
2022-11-06T05:03:38.912Z,17.60
2022-11-06T05:05:55.847Z,15.57
2022-11-06T05:08:13.269Z,20.35
2022-11-06T05:10:30.544Z,15.45
2022-11-06T05:12:47.794Z,18.42
2022-11-06T05:15:04.803Z,19.30
2022-11-06T05:17:22.039Z,16.02
2022-11-06T05:19:39.060Z,16.02
2022-11-06T05:21:56.024Z,15.20
2022-11-06T05:24:13.274Z,17.08
2022-11-06T05:26:30.272Z,18.40
2022-11-06T05:28:48.137Z,18.73
2022-11-06T05:31:05.377Z,16.30
2022-11-06T05:33:23.330Z,17.67
2022-11-06T05:35:40.338Z,20.75
2022-11-06T05:37:57.691Z,14.38
2022-11-06T05:40:14.624Z,17.55
2022-11-06T05:42:31.822Z,15.20
2022-11-06T05:44:48.863Z,18.15
2022-11-06T05:47:07.064Z,17.35
2022-11-06T05:49:24.037Z,14.35
2022-11-06T05:51:40.962Z,18.70
2022-11-06T05:53:57.999Z,16.17
2022-11-06T05:56:14.982Z,15.07
2022-11-06T05:58:31.992Z,18.00
2022-11-06T06:00:50.013Z,18.73
2022-11-06T06:03:07.014Z,20.95
2022-11-06T06:05:25.293Z,18.63
2022-11-06T06:07:42.235Z,16.50
2022-11-06T06:09:59.571Z,19.80
2022-11-06T06:12:16.553Z,16.67
2022-11-06T06:14:33.876Z,17.92
2022-11-06T06:16:52.126Z,16.00
2022-11-06T06:19:09.526Z,13.27
2022-11-06T06:21:26.604Z,19.23
2022-11-06T06:23:44.072Z,15.70
2022-11-06T06:26:00.983Z,20.63
2022-11-06T06:28:17.971Z,21.17
2022-11-06T06:30:36.172Z,20.73
2022-11-06T06:32:53.191Z,21.92
2022-11-06T06:35:10.195Z,19.83
2022-11-06T06:37:27.177Z,17.77
2022-11-06T06:39:44.212Z,19.20
2022-11-06T06:42:02.462Z,21.02
2022-11-06T06:44:19.491Z,21.60
2022-11-06T06:46:36.477Z,20.67
2022-11-06T06:48:53.538Z,19.52
2022-11-06T06:51:10.738Z,19.35
2022-11-06T06:53:27.977Z,19.83
2022-11-06T06:55:45.274Z,18.92
2022-11-06T06:58:02.388Z,19.10
2022-11-06T07:00:19.346Z,19.35
2022-11-06T07:02:36.317Z,22.05
2022-11-06T07:04:53.629Z,16.48
2022-11-06T07:07:11.599Z,19.92
2022-11-06T07:09:28.946Z,16.05
2022-11-06T07:11:45.929Z,18.08
2022-11-06T07:14:03.108Z,19.38
2022-11-06T07:16:20.062Z,22.05
2022-11-06T07:18:36.991Z,21.67
2022-11-06T07:20:53.935Z,15.73
2022-11-06T07:23:10.934Z,15.25
2022-11-06T07:25:28.786Z,17.92
2022-11-06T07:27:46.056Z,18.52
2022-11-06T07:30:03.309Z,17.65
2022-11-06T07:32:20.633Z,19.08
2022-11-06T07:34:37.891Z,17.08
2022-11-06T07:36:54.802Z,13.90
2022-11-06T07:39:12.022Z,14.77
2022-11-06T07:41:29.051Z,15.10
2022-11-06T07:43:46.042Z,14.02
2022-11-06T07:46:03.059Z,14.35
2022-11-06T07:48:20.115Z,15.80
2022-11-06T07:50:37.146Z,14.88
2022-11-06T07:52:54.367Z,14.60
2022-11-06T07:55:12.551Z,13.43
2022-11-06T07:57:29.694Z,15.65
2022-11-06T07:59:46.676Z,14.80
2022-11-06T08:02:04.016Z,14.68
2022-11-06T08:04:21.969Z,13.73
2022-11-06T08:06:38.883Z,12.55
2022-11-06T08:08:58.854Z,12.05
2022-11-06T08:11:17.160Z,14.50
2022-11-06T08:13:34.091Z,13.70
2022-11-06T08:15:51.061Z,13.73
2022-11-06T08:18:08.006Z,17.45
2022-11-06T08:20:25.030Z,15.23
2022-11-06T08:22:42.033Z,15.40
2022-11-06T08:24:59.095Z,16.48
2022-11-06T08:27:16.122Z,16.30
2022-11-06T08:29:39.900Z,13.13
2022-11-06T08:34:14.995Z,13.85
2022-11-06T08:36:32.055Z,14.68
2022-11-06T08:38:48.965Z,14.65
2022-11-06T08:41:06.031Z,13.18
2022-11-06T08:43:23.245Z,13.55
2022-11-06T08:45:40.581Z,17.55
2022-11-06T08:47:57.637Z,13.18
2022-11-06T08:50:14.534Z,12.52
2022-11-06T08:52:34.231Z,15.93
2022-11-06T08:54:51.765Z,11.57
2022-11-06T08:57:08.700Z,14.93
2022-11-06T08:59:25.717Z,13.75
2022-11-06T09:01:43.710Z,29.45
2022-11-06T09:04:01.105Z,34.70
2022-11-06T09:06:18.110Z,23.48
2022-11-06T09:08:35.078Z,10.93
2022-11-06T09:10:57.250Z,11.25
2022-11-06T09:13:16.142Z,11.07
2022-11-06T09:15:33.597Z,8.68
2022-11-06T09:17:50.671Z,9.95
2022-11-06T09:20:08.079Z,11.00
2022-11-06T09:22:25.117Z,11.82
2022-11-06T09:25:02.668Z,13.75
2022-11-06T09:27:18.978Z,20.25
2022-11-06T09:29:36.247Z,15.40
2022-11-06T09:31:53.416Z,12.35
2022-11-06T09:34:10.450Z,8.18
2022-11-06T09:36:27.461Z,11.43
2022-11-06T09:38:46.176Z,11.38
2022-11-06T09:41:03.108Z,9.90
2022-11-06T09:43:31.715Z,9.98
2022-11-06T09:45:57.408Z,8.07
2022-11-06T09:48:18.376Z,11.57
2022-11-06T09:50:35.694Z,8.75
2022-11-06T09:52:52.930Z,8.77
2022-11-06T09:55:10.540Z,8.43
2022-11-06T09:57:28.202Z,9.25
2022-11-06T09:59:45.178Z,8.30
2022-11-06T10:02:02.661Z,7.40
2022-11-06T10:04:19.889Z,5.50
2022-11-06T10:06:36.932Z,7.35
2022-11-06T10:08:54.909Z,8.52
2022-11-06T10:11:12.186Z,6.80
2022-11-06T10:13:30.419Z,8.40
2022-11-06T10:15:47.478Z,5.85
2022-11-06T10:18:04.565Z,7.53
2022-11-06T10:20:26.791Z,6.70
2022-11-06T10:22:44.465Z,10.30
2022-11-06T10:25:02.595Z,5.55
2022-11-06T10:27:20.016Z,5.80
2022-11-06T10:29:36.969Z,7.22
2022-11-06T10:31:53.919Z,9.40
2022-11-06T10:34:11.059Z,6.82
2022-11-06T10:36:27.994Z,6.80
2022-11-06T10:38:45.366Z,4.68
2022-11-06T10:41:03.816Z,5.47
2022-11-06T10:43:20.792Z,6.93
2022-11-06T10:45:39.111Z,6.18
2022-11-06T10:47:56.370Z,8.02
2022-11-06T10:50:14.435Z,7.93
2022-11-06T10:52:32.475Z,6.90
2022-11-06T10:54:49.401Z,7.45
2022-11-06T10:57:07.370Z,5.90
2022-11-06T10:59:24.435Z,6.78
2022-11-06T11:01:41.855Z,7.35
2022-11-06T11:03:59.828Z,5.35
2022-11-06T11:06:16.825Z,6.53
2022-11-06T11:08:33.877Z,6.20
2022-11-06T11:11:04.196Z,4.72
2022-11-06T11:13:23.117Z,6.90
2022-11-06T11:15:40.186Z,6.30
2022-11-06T11:18:00.265Z,4.28
2022-11-06T11:20:17.593Z,7.07
2022-11-06T11:22:35.642Z,4.22
2022-11-06T11:24:52.936Z,6.03
2022-11-06T11:27:10.157Z,5.65
2022-11-06T11:29:27.188Z,8.65
2022-11-06T11:31:44.103Z,5.55
2022-11-06T11:34:01.232Z,5.60
2022-11-06T11:36:18.178Z,6.70
2022-11-06T11:38:35.197Z,8.23
2022-11-06T11:40:53.312Z,5.43
2022-11-06T11:43:10.305Z,6.30
2022-11-06T11:45:27.286Z,8.10
2022-11-06T11:47:44.474Z,7.32
2022-11-06T11:50:01.484Z,4.32
2022-11-06T11:52:18.952Z,7.65
2022-11-06T11:54:35.951Z,5.80
2022-11-06T11:57:09.587Z,8.48
2022-11-06T11:59:26.527Z,5.72
2022-11-06T12:01:44.932Z,4.53
2022-11-06T12:04:03.118Z,5.75
2022-11-06T12:06:20.545Z,4.18
2022-11-06T12:08:37.729Z,6.05
2022-11-06T12:10:54.817Z,6.88
2022-11-06T12:13:11.900Z,7.15
2022-11-06T12:15:29.137Z,5.25
2022-11-06T12:17:46.176Z,5.05
2022-11-06T12:20:03.141Z,6.40
2022-11-06T12:22:21.050Z,5.03
2022-11-06T12:24:38.459Z,4.57
2022-11-06T12:26:55.766Z,5.82
2022-11-06T12:29:12.754Z,8.07
2022-11-06T12:31:30.863Z,7.57
2022-11-06T12:34:05.502Z,7.85
2022-11-06T12:36:23.537Z,6.93
2022-11-06T12:38:40.727Z,8.02
2022-11-06T12:40:57.611Z,9.13
2022-11-06T12:43:14.532Z,7.70
2022-11-06T12:45:31.548Z,7.75
2022-11-06T12:47:49.624Z,7.68
2022-11-06T12:50:06.953Z,8.05
2022-11-06T12:52:24.063Z,7.70
2022-11-06T12:54:41.407Z,9.63
2022-11-06T12:56:58.584Z,6.38
2022-11-06T12:59:16.118Z,6.00
2022-11-06T13:01:33.293Z,8.30
2022-11-06T13:03:50.382Z,8.45
2022-11-06T13:06:12.054Z,6.97
2022-11-06T13:08:30.291Z,6.55
2022-11-06T13:10:49.782Z,10.18
2022-11-06T13:13:12.856Z,4.63
2022-11-06T13:15:32.402Z,8.65
2022-11-06T13:17:49.342Z,9.50
2022-11-06T13:20:09.586Z,6.97
2022-11-06T13:22:26.569Z,8.25
2022-11-06T13:24:44.027Z,8.07
2022-11-06T13:27:04.288Z,7.57
2022-11-06T13:29:23.802Z,8.75
2022-11-06T13:31:41.121Z,5.82
2022-11-06T13:33:58.027Z,5.88
2022-11-06T13:36:15.102Z,8.43
2022-11-06T13:38:32.043Z,7.30
2022-11-06T13:40:49.125Z,6.90
2022-11-06T13:43:07.414Z,7.93
2022-11-06T13:45:24.460Z,8.90
2022-11-06T13:47:41.706Z,11.57
2022-11-06T13:49:59.696Z,8.65
2022-11-06T13:52:16.905Z,7.65
2022-11-06T13:54:34.945Z,7.30
2022-11-06T13:56:52.191Z,7.03
2022-11-06T13:59:11.220Z,6.63
2022-11-06T14:01:28.415Z,10.23
2022-11-06T14:03:45.537Z,8.85
2022-11-06T14:06:03.824Z,7.55
2022-11-06T14:08:21.107Z,6.25
2022-11-06T14:10:38.408Z,16.77
2022-11-06T14:12:55.388Z,16.35
2022-11-06T14:15:12.699Z,13.25
2022-11-06T14:17:30.654Z,9.05
2022-11-06T14:19:50.673Z,8.48
2022-11-06T14:22:08.133Z,9.73
2022-11-06T14:24:25.167Z,8.35
2022-11-06T14:26:42.424Z,8.30
2022-11-06T14:28:59.419Z,7.50
2022-11-06T14:31:22.606Z,8.88
2022-11-06T14:33:41.070Z,7.55
2022-11-06T14:35:58.055Z,8.13
2022-11-06T14:38:15.657Z,7.25
2022-11-06T14:40:34.162Z,8.88
2022-11-06T14:42:51.434Z,19.38
2022-11-06T14:45:09.467Z,14.38
2022-11-06T14:47:26.413Z,8.15
2022-11-06T14:49:44.393Z,8.35
2022-11-06T14:52:01.345Z,8.20
2022-11-06T14:54:18.542Z,8.40
2022-11-06T14:56:35.700Z,6.68
2022-11-06T14:58:52.669Z,7.38
2022-11-06T15:01:09.654Z,7.28
2022-11-06T15:03:27.406Z,7.72
2022-11-06T15:05:51.075Z,9.20
2022-11-06T15:08:10.071Z,11.70
2022-11-06T15:10:28.072Z,8.48
2022-11-06T15:12:45.343Z,9.65
2022-11-06T15:15:02.782Z,7.97
2022-11-06T15:17:21.034Z,10.38
2022-11-06T15:19:38.021Z,7.60
2022-11-06T15:21:54.942Z,10.10
2022-11-06T15:24:12.726Z,9.35
2022-11-06T15:26:29.812Z,9.25
2022-11-06T15:28:46.893Z,13.85
2022-11-06T15:31:04.114Z,10.20
2022-11-06T15:33:21.365Z,8.85
2022-11-06T15:35:38.351Z,8.15
2022-11-06T15:37:55.199Z,9.55
2022-11-06T15:40:12.424Z,9.68
2022-11-06T15:42:30.614Z,10.23
2022-11-06T15:44:47.644Z,9.40
2022-11-06T15:47:04.500Z,8.95
2022-11-06T15:49:21.811Z,7.45
2022-11-06T15:51:38.868Z,10.05
2022-11-06T15:53:56.087Z,8.00
2022-11-06T15:56:13.844Z,10.80
2022-11-06T15:58:31.504Z,12.52
2022-11-06T16:00:48.900Z,14.70
2022-11-06T16:03:06.130Z,9.90
2022-11-06T16:05:23.368Z,10.95
2022-11-06T16:07:40.405Z,12.07
2022-11-06T16:09:57.520Z,9.18
2022-11-06T16:12:14.606Z,9.10
2022-11-06T16:14:32.637Z,11.38
2022-11-06T16:16:49.853Z,9.18
2022-11-06T16:19:07.288Z,9.73
2022-11-06T16:21:24.263Z,9.13
2022-11-06T16:23:41.186Z,9.52
2022-11-06T16:25:58.319Z,9.38
2022-11-06T16:28:15.464Z,9.77
2022-11-06T16:30:33.858Z,9.73
2022-11-06T16:32:53.677Z,10.45
2022-11-06T16:35:11.783Z,9.40
2022-11-06T16:37:33.634Z,10.77
2022-11-06T16:39:51.898Z,12.05
2022-11-06T16:42:08.837Z,10.68
2022-11-06T16:44:31.267Z,10.85
2022-11-06T16:46:49.227Z,10.63
2022-11-06T16:49:06.100Z,12.57
2022-11-06T16:51:23.320Z,9.65
2022-11-06T16:53:40.233Z,12.48
2022-11-06T16:55:58.289Z,10.90
2022-11-06T16:58:15.505Z,10.27
2022-11-06T17:00:32.826Z,11.90
2022-11-06T17:02:49.896Z,13.20
2022-11-06T17:05:06.931Z,9.52
2022-11-06T17:07:24.721Z,11.20
2022-11-06T17:09:41.982Z,10.55
2022-11-06T17:11:59.051Z,11.98
2022-11-06T17:14:16.327Z,12.02
2022-11-06T17:16:33.327Z,11.68
2022-11-06T17:18:50.562Z,13.68
2022-11-06T17:21:07.789Z,13.68
2022-11-06T17:23:24.896Z,10.52
2022-11-06T17:25:42.172Z,11.75
2022-11-06T17:27:59.060Z,11.70
2022-11-06T17:30:17.167Z,12.02
2022-11-06T17:32:34.367Z,11.82
2022-11-06T17:34:54.637Z,13.27
2022-11-06T17:37:12.169Z,12.77
2022-11-06T17:39:30.263Z,14.18
2022-11-06T17:41:47.457Z,16.75
2022-11-06T17:44:04.498Z,13.23
2022-11-06T17:46:21.506Z,12.10
2022-11-06T17:48:38.881Z,13.77
2022-11-06T17:50:56.159Z,13.98
2022-11-06T17:53:13.484Z,13.13
2022-11-06T17:55:30.616Z,10.63
2022-11-06T17:57:47.918Z,12.82
2022-11-06T18:00:05.008Z,9.35
2022-11-06T18:02:47.659Z,7.97
2022-11-06T18:04:59.253Z,9.88
2022-11-06T18:07:16.307Z,9.38
2022-11-06T18:09:33.581Z,9.13
2022-11-06T18:11:50.671Z,10.68
2022-11-06T18:14:08.031Z,12.27
2022-11-06T18:16:25.459Z,11.25
2022-11-06T18:18:44.876Z,10.23
2022-11-06T18:21:01.798Z,11.07
2022-11-06T18:23:18.794Z,12.77
2022-11-06T18:25:36.087Z,9.57
2022-11-06T18:27:53.330Z,7.75
2022-11-06T18:30:10.251Z,8.85
2022-11-06T18:32:27.593Z,10.13
2022-11-06T18:34:44.615Z,10.93
2022-11-06T18:37:01.552Z,13.65
2022-11-06T18:39:18.842Z,11.45
2022-11-06T18:41:36.129Z,13.63
2022-11-06T18:43:53.162Z,13.55
2022-11-06T18:46:10.103Z,11.57
2022-11-06T18:48:28.343Z,11.38
2022-11-06T18:50:45.356Z,11.30
2022-11-06T18:53:02.441Z,9.93
2022-11-06T18:55:19.765Z,9.80
2022-11-06T18:57:36.834Z,12.10
2022-11-06T18:59:54.321Z,8.68
2022-11-06T19:02:12.610Z,7.80
2022-11-06T19:04:30.075Z,9.98
2022-11-06T19:06:47.130Z,11.05
2022-11-06T19:09:05.792Z,8.07
2022-11-06T19:11:26.448Z,9.48
2022-11-06T19:13:47.478Z,7.45
2022-11-06T19:16:05.391Z,6.55
2022-11-06T19:18:22.636Z,8.75
2022-11-06T19:20:40.257Z,7.13
2022-11-06T19:22:58.284Z,9.57
2022-11-06T19:25:15.220Z,8.48
2022-11-06T19:27:32.490Z,7.65
2022-11-06T19:29:49.821Z,7.10
2022-11-06T19:32:06.786Z,6.85
2022-11-06T19:34:25.069Z,8.20
2022-11-06T19:36:42.035Z,8.82
2022-11-06T19:38:59.105Z,7.82
2022-11-06T19:41:16.138Z,7.88
2022-11-06T19:43:33.353Z,9.88
2022-11-06T19:45:50.658Z,10.70
2022-11-06T19:48:08.773Z,10.07
2022-11-06T19:50:53.658Z,10.00
2022-11-06T19:53:03.078Z,8.65
2022-11-06T19:55:26.119Z,7.13
2022-11-06T19:57:44.666Z,7.55
2022-11-06T20:00:07.194Z,6.45
2022-11-06T20:02:27.202Z,7.85
2022-11-06T20:04:44.260Z,6.93
2022-11-06T20:07:01.611Z,7.60
2022-11-06T20:09:18.628Z,6.40
2022-11-06T20:11:36.865Z,7.63
2022-11-06T20:13:53.846Z,8.13
2022-11-06T20:16:10.794Z,6.38
2022-11-06T20:18:28.866Z,6.88
2022-11-06T20:20:45.965Z,5.65
2022-11-06T20:23:05.651Z,7.13
2022-11-06T20:25:22.604Z,6.40
2022-11-06T20:27:39.638Z,7.88
2022-11-06T20:29:56.708Z,7.53
2022-11-06T20:32:18.702Z,5.93
2022-11-06T20:34:36.413Z,6.85
2022-11-06T20:36:53.471Z,6.80
2022-11-06T20:39:10.413Z,5.28
2022-11-06T20:41:27.641Z,6.60
2022-11-06T20:43:44.576Z,5.55
2022-11-06T20:46:01.612Z,5.80
2022-11-06T20:48:18.653Z,5.70
2022-11-06T20:50:35.630Z,4.90
2022-11-06T20:52:53.644Z,5.97
2022-11-06T20:55:10.563Z,4.78
2022-11-06T20:57:27.517Z,5.20
2022-11-06T20:59:44.433Z,4.80
2022-11-06T21:02:01.519Z,4.45
2022-11-06T21:04:18.539Z,5.40
2022-11-06T21:06:35.564Z,4.78
2022-11-06T21:08:52.574Z,7.40
2022-11-06T21:11:09.667Z,5.32
2022-11-06T21:13:26.861Z,5.25
2022-11-06T21:15:43.812Z,5.43
2022-11-06T21:18:01.046Z,6.82
2022-11-06T21:20:22.474Z,6.47
2022-11-06T21:22:39.911Z,7.07
2022-11-06T21:24:57.139Z,5.78
2022-11-06T21:27:14.154Z,6.25
2022-11-06T21:29:31.121Z,8.45
2022-11-06T21:31:49.301Z,7.82
2022-11-06T21:34:06.408Z,7.93
2022-11-06T21:36:23.753Z,6.00
2022-11-06T21:38:40.684Z,5.50
2022-11-06T21:40:57.670Z,7.32
2022-11-06T21:43:15.891Z,5.65
2022-11-06T21:45:32.885Z,7.15
2022-11-06T21:47:49.978Z,8.15
2022-11-06T21:50:06.982Z,8.35
2022-11-06T21:52:28.974Z,5.55
2022-11-06T21:54:46.832Z,5.80
2022-11-06T21:57:04.850Z,8.57
2022-11-06T21:59:21.822Z,8.63
2022-11-06T22:01:39.151Z,6.93
2022-11-06T22:03:56.533Z,8.02
2022-11-06T22:06:13.523Z,8.90
2022-11-06T22:08:31.457Z,8.95
2022-11-06T22:10:48.531Z,8.73
2022-11-06T22:13:05.780Z,7.47
2022-11-06T22:15:24.069Z,7.82
2022-11-06T22:17:41.451Z,8.85
2022-11-06T22:19:58.747Z,10.60
2022-11-06T22:22:15.675Z,10.40
2022-11-06T22:24:33.376Z,6.00
2022-11-06T22:26:51.704Z,7.18
2022-11-06T22:29:09.039Z,7.90
2022-11-06T22:31:27.113Z,8.82
2022-11-06T22:33:47.946Z,6.88
2022-11-06T22:36:08.693Z,9.98
2022-11-06T22:38:25.740Z,12.30
2022-11-06T22:40:45.628Z,10.52
2022-11-06T22:43:02.972Z,11.10
2022-11-06T22:45:20.399Z,7.95
2022-11-06T22:47:37.885Z,9.88
2022-11-06T22:49:55.287Z,8.98
2022-11-06T22:52:12.327Z,10.23
2022-11-06T22:54:30.278Z,11.48
2022-11-06T22:56:47.366Z,9.48
2022-11-06T22:59:04.363Z,10.43
2022-11-06T23:01:21.478Z,11.50
2022-11-06T23:03:38.717Z,10.75
2022-11-06T23:05:56.925Z,14.73
2022-11-06T23:08:15.004Z,11.80
2022-11-06T23:10:31.958Z,10.70
2022-11-06T23:12:49.296Z,11.10
2022-11-06T23:15:06.397Z,9.88
2022-11-06T23:17:23.607Z,14.10
2022-11-06T23:19:41.002Z,9.00
2022-11-06T23:21:58.285Z,9.95
2022-11-06T23:24:15.405Z,15.88
2022-11-06T23:26:32.708Z,10.85
2022-11-06T23:28:49.710Z,12.48
2022-11-06T23:31:06.797Z,13.68
2022-11-06T23:33:23.900Z,13.05
2022-11-06T23:35:40.896Z,13.50
2022-11-06T23:37:59.261Z,14.27
2022-11-06T23:40:17.447Z,11.00
2022-11-06T23:42:34.491Z,10.38
2022-11-06T23:44:52.134Z,15.40
2022-11-06T23:47:09.517Z,13.45
2022-11-06T23:49:28.802Z,13.27
2022-11-06T23:51:45.877Z,11.13
2022-11-06T23:54:02.968Z,12.23
2022-11-06T23:56:20.390Z,12.25
2022-11-06T23:58:37.810Z,10.32
